createdAt,value
2023-03-28T00:01:52.538Z,7.50
2023-03-28T00:04:22.987Z,7.00
2023-03-28T00:06:52.092Z,11.10
2023-03-28T00:09:20.648Z,7.50
2023-03-28T00:11:48.559Z,10.20
2023-03-28T00:14:16.652Z,8.60
2023-03-28T00:16:46.829Z,6.80
2023-03-28T00:23:36.967Z,7.80
2023-03-28T00:26:08.251Z,7.40
2023-03-28T00:28:36.449Z,7.10
2023-03-28T00:31:11.448Z,6.00
2023-03-28T00:33:39.378Z,6.00
2023-03-28T00:36:10.626Z,8.40
2023-03-28T00:38:38.858Z,7.20
2023-03-28T00:41:10.753Z,6.30
2023-03-28T00:43:43.805Z,5.20
2023-03-28T00:46:38.617Z,5.50
2023-03-28T00:49:22.932Z,8.00
2023-03-28T00:52:02.512Z,6.90
2023-03-28T00:54:34.683Z,10.10
2023-03-28T00:57:07.031Z,7.70
2023-03-28T00:59:37.723Z,10.60
2023-03-28T01:02:06.509Z,9.90
2023-03-28T01:04:49.217Z,7.80
2023-03-28T01:11:32.313Z,7.70
2023-03-28T01:14:04.912Z,8.30
2023-03-28T01:16:33.955Z,6.40
2023-03-28T01:19:04.322Z,6.50
2023-03-28T01:22:23.189Z,7.90
2023-03-28T01:25:28.470Z,8.40
2023-03-28T01:28:16.905Z,7.40
2023-03-28T01:30:51.958Z,7.30
2023-03-28T01:33:48.567Z,7.40
2023-03-28T01:36:35.923Z,6.70
2023-03-28T01:39:09.818Z,8.60
2023-03-28T01:42:05.621Z,7.70
2023-03-28T01:44:44.781Z,8.70
2023-03-28T01:47:36.494Z,7.10
2023-03-28T01:50:19.298Z,7.80
2023-03-28T01:53:13.230Z,8.90
2023-03-28T01:56:08.261Z,9.10
2023-03-28T01:59:03.866Z,9.90
2023-03-28T02:02:05.211Z,9.10
2023-03-28T02:04:35.449Z,7.70
2023-03-28T02:07:05.460Z,8.50
2023-03-28T02:09:37.007Z,8.10
2023-03-28T02:12:12.638Z,6.90
2023-03-28T02:14:48.732Z,7.80
2023-03-28T02:17:17.530Z,7.30
2023-03-28T02:20:09.261Z,7.10
2023-03-28T02:23:03.476Z,8.20
2023-03-28T02:25:32.159Z,7.10
2023-03-28T02:28:05.530Z,7.60
2023-03-28T02:30:34.527Z,9.90
2023-03-28T02:33:07.060Z,8.90
2023-03-28T02:36:21.298Z,8.90
2023-03-28T02:38:56.460Z,11.70
2023-03-28T02:41:40.984Z,9.60
2023-03-28T02:44:23.331Z,8.40
2023-03-28T02:47:21.866Z,7.50
2023-03-28T02:50:00.879Z,9.40
2023-03-28T02:52:35.463Z,9.60
2023-03-28T02:55:29.635Z,11.00
2023-03-28T02:58:23.878Z,9.80
2023-03-28T03:00:52.358Z,12.20
2023-03-28T03:03:21.980Z,11.20
2023-03-28T03:05:50.375Z,13.20
2023-03-28T03:08:18.886Z,11.50
2023-03-28T03:10:49.781Z,9.60
2023-03-28T03:13:17.602Z,8.40
2023-03-28T03:15:54.591Z,9.80
2023-03-28T03:18:23.783Z,10.80
2023-03-28T03:20:53.068Z,11.60
2023-03-28T03:23:21.066Z,11.40
2023-03-28T03:25:51.091Z,12.10
2023-03-28T03:28:19.703Z,13.30
2023-03-28T03:30:47.833Z,15.80
2023-03-28T03:33:16.783Z,10.90
2023-03-28T03:42:02.479Z,9.70
2023-03-28T03:44:30.526Z,10.30
2023-03-28T03:46:58.697Z,14.70
2023-03-28T03:49:27.729Z,17.30
2023-03-28T03:51:56.235Z,14.60
2023-03-28T03:54:27.248Z,15.70
2023-03-28T03:56:55.170Z,12.90
2023-03-28T03:59:23.581Z,12.10
2023-03-28T04:01:51.579Z,12.60
2023-03-28T04:04:19.793Z,13.70
2023-03-28T04:06:47.612Z,16.70
2023-03-28T04:09:17.736Z,15.80
2023-03-28T04:11:47.842Z,18.00
2023-03-28T04:14:18.997Z,20.30
2023-03-28T04:16:52.630Z,16.40
2023-03-28T04:19:20.676Z,14.00
2023-03-28T04:21:48.992Z,16.50
2023-03-28T04:24:21.052Z,17.10
2023-03-28T04:26:56.174Z,17.00
2023-03-28T04:29:30.893Z,15.40
2023-03-28T04:31:59.494Z,15.40
2023-03-28T04:34:31.061Z,13.60
2023-03-28T04:37:03.952Z,15.00
2023-03-28T04:40:40.410Z,15.90
2023-03-28T04:43:29.688Z,14.30
2023-03-28T04:47:20.294Z,15.00
2023-03-28T04:51:24.576Z,14.70
2023-03-28T04:53:52.531Z,16.90
2023-03-28T04:56:19.125Z,15.60
2023-03-28T04:58:47.065Z,16.30
2023-03-28T05:01:14.153Z,16.80
2023-03-28T05:04:01.134Z,16.20
2023-03-28T05:06:31.067Z,14.30
2023-03-28T05:09:01.552Z,14.60
2023-03-28T05:11:28.833Z,12.60
2023-03-28T05:16:29.803Z,12.40
2023-03-28T05:20:32.772Z,15.10
2023-03-28T05:23:44.591Z,27.40
2023-03-28T05:37:59.139Z,13.20
2023-03-28T05:40:54.059Z,31.90
2023-03-28T05:43:26.373Z,17.70
2023-03-28T05:55:10.426Z,12.00
2023-03-28T05:57:38.264Z,13.50
2023-03-28T06:00:10.715Z,13.70
2023-03-28T06:02:46.121Z,14.80
2023-03-28T06:05:17.339Z,16.50
2023-03-28T06:07:46.840Z,16.00
2023-03-28T06:10:16.582Z,14.60
2023-03-28T06:12:50.939Z,13.30
2023-03-28T06:15:20.184Z,15.00
2023-03-28T06:17:53.758Z,13.70
2023-03-28T06:20:22.609Z,15.10
2023-03-28T06:22:52.990Z,15.20
2023-03-28T06:25:25.125Z,17.00
2023-03-28T06:27:53.583Z,16.40
2023-03-28T06:30:22.207Z,16.40
2023-03-28T06:32:52.388Z,19.40
2023-03-28T06:35:21.372Z,17.10
2023-03-28T06:37:50.547Z,16.80
2023-03-28T06:42:01.926Z,15.90
2023-03-28T06:45:35.711Z,19.00
2023-03-28T06:48:05.323Z,15.70
2023-03-28T06:50:37.654Z,17.60
2023-03-28T06:53:08.643Z,16.00
2023-03-28T07:07:10.075Z,16.10
2023-03-28T07:25:05.317Z,13.80
2023-03-28T07:27:33.336Z,18.70
2023-03-28T07:33:30.853Z,16.50
2023-03-28T07:36:12.774Z,15.50
2023-03-28T07:40:30.103Z,14.60
2023-03-28T07:55:09.667Z,16.90
2023-03-28T07:57:42.068Z,13.30
2023-03-28T08:00:12.670Z,16.80
2023-03-28T08:02:45.082Z,14.90
2023-03-28T08:05:12.317Z,16.90
2023-03-28T08:07:41.843Z,14.20
2023-03-28T08:10:09.094Z,15.10
2023-03-28T08:12:37.205Z,15.90
2023-03-28T08:19:10.091Z,17.00
2023-03-28T08:21:39.455Z,19.20
2023-03-28T08:24:08.783Z,16.00
2023-03-28T08:26:36.537Z,16.10
2023-03-28T08:29:04.486Z,17.00
2023-03-28T08:31:31.788Z,15.30
2023-03-28T08:33:58.408Z,18.10
2023-03-28T08:36:27.218Z,15.10
2023-03-28T08:39:05.688Z,15.30
2023-03-28T08:47:53.114Z,14.30
2023-03-28T08:50:29.560Z,11.90
2023-03-28T08:52:58.420Z,11.80
2023-03-28T08:55:38.548Z,11.30
2023-03-28T08:58:11.101Z,9.90
2023-03-28T09:00:39.517Z,8.10
2023-03-28T09:03:16.311Z,7.80
2023-03-28T09:06:31.161Z,6.80
2023-03-28T09:09:13.515Z,7.40
2023-03-28T09:11:54.329Z,6.70
2023-03-28T09:14:56.128Z,6.80
2023-03-28T09:17:41.493Z,5.60
2023-03-28T09:20:33.678Z,4.50
2023-03-28T09:23:13.849Z,4.40
2023-03-28T09:30:25.329Z,6.50
2023-03-28T09:32:58.863Z,5.70
2023-03-28T09:39:52.426Z,6.50
2023-03-28T09:43:30.815Z,6.30
2023-03-28T09:47:15.136Z,10.60
2023-03-28T09:49:45.217Z,10.20
2023-03-28T09:52:19.728Z,8.90
2023-03-28T09:54:48.995Z,11.70
2023-03-28T09:57:16.840Z,9.50
2023-03-28T10:13:25.629Z,11.30
2023-03-28T10:16:06.376Z,10.40
2023-03-28T10:30:35.485Z,12.40
2023-03-28T10:47:46.384Z,8.10
2023-03-28T10:51:09.076Z,7.40
2023-03-28T10:54:20.286Z,8.80
2023-03-28T10:56:57.792Z,6.20
2023-03-28T11:04:24.638Z,5.40
2023-03-28T11:18:03.377Z,3.60
2023-03-28T11:21:30.953Z,4.70
2023-03-28T11:24:32.593Z,7.50
2023-03-28T11:27:14.795Z,8.50
2023-03-28T11:29:54.448Z,4.20
2023-03-28T11:32:29.747Z,5.00
2023-03-28T11:35:03.054Z,4.80
2023-03-28T11:37:42.004Z,3.80
2023-03-28T11:40:17.909Z,4.30
2023-03-28T11:42:48.928Z,4.60
2023-03-28T11:45:46.703Z,6.60
2023-03-28T11:48:33.923Z,5.00
2023-03-28T11:51:18.831Z,4.40
2023-03-28T11:53:55.618Z,5.30
2023-03-28T11:56:50.732Z,6.40
2023-03-28T11:59:24.875Z,4.40
2023-03-28T12:02:03.464Z,4.60
2023-03-28T12:04:37.870Z,3.60
2023-03-28T12:07:27.924Z,3.80
2023-03-28T12:10:17.733Z,4.30
2023-03-28T12:12:56.476Z,4.60
2023-03-28T12:15:33.158Z,4.80
2023-03-28T12:18:12.576Z,6.00
2023-03-28T12:21:00.192Z,3.90
2023-03-28T12:23:41.354Z,5.40
2023-03-28T12:26:44.326Z,5.20
2023-03-28T12:29:25.599Z,4.20
2023-03-28T12:32:38.448Z,4.20
2023-03-28T12:35:24.840Z,5.10
2023-03-28T12:38:14.767Z,3.40
2023-03-28T12:40:54.334Z,3.50
2023-03-28T12:43:42.281Z,5.40
2023-03-28T12:46:15.476Z,4.80
2023-03-28T12:49:37.463Z,3.70
2023-03-28T12:52:11.817Z,5.10
2023-03-28T12:55:04.933Z,2.50
2023-03-28T12:57:56.884Z,3.80
2023-03-28T13:01:10.053Z,3.10
2023-03-28T13:04:29.379Z,3.70
2023-03-28T13:07:38.912Z,3.40
2023-03-28T13:11:06.903Z,4.20
2023-03-28T13:13:59.050Z,3.40
2023-03-28T13:18:20.467Z,3.80
2023-03-28T13:21:57.660Z,5.10
2023-03-28T13:26:08.768Z,2.10
2023-03-28T13:29:17.910Z,3.40
2023-03-28T13:33:28.451Z,4.70
2023-03-28T13:36:36.512Z,2.10
2023-03-28T13:40:48.715Z,2.10
2023-03-28T13:43:25.066Z,3.50
2023-03-28T13:46:05.990Z,3.60
2023-03-28T13:48:52.995Z,3.30
2023-03-28T13:51:45.942Z,3.70
2023-03-28T13:54:29.737Z,6.20
2023-03-28T13:57:04.311Z,5.60
2023-03-28T13:59:39.886Z,5.80
2023-03-28T14:02:34.694Z,6.10
2023-03-28T14:05:29.350Z,5.90
2023-03-28T14:08:17.566Z,6.30
2023-03-28T14:10:51.554Z,4.00
2023-03-28T14:13:49.635Z,3.10
2023-03-28T14:16:20.166Z,3.40
2023-03-28T14:18:56.831Z,3.00
2023-03-28T14:21:25.593Z,4.90
2023-03-28T14:24:49.745Z,3.50
2023-03-28T14:27:55.781Z,1.70
2023-03-28T14:30:30.133Z,3.10
2023-03-28T14:33:07.803Z,4.30
2023-03-28T14:35:37.440Z,3.90
2023-03-28T14:38:08.000Z,3.20
2023-03-28T14:41:26.649Z,4.60
2023-03-28T15:10:08.897Z,4.10
2023-03-28T15:13:11.547Z,3.50
2023-03-28T15:16:26.684Z,1.90
2023-03-28T15:20:21.133Z,3.50
2023-03-28T15:23:57.560Z,2.90
2023-03-28T15:26:35.218Z,3.60
2023-03-28T15:29:06.829Z,2.80
2023-03-28T15:31:40.400Z,3.80
2023-03-28T15:34:20.263Z,4.20
2023-03-28T15:36:57.778Z,2.30
2023-03-28T15:39:29.827Z,3.50
2023-03-28T15:48:36.505Z,3.50
2023-03-28T15:51:08.116Z,3.10
2023-03-28T15:53:38.541Z,3.90
2023-03-28T15:56:29.722Z,3.90
2023-03-28T15:59:25.528Z,3.20
2023-03-28T16:02:21.444Z,2.90
2023-03-28T16:05:05.278Z,2.80
2023-03-28T16:07:50.146Z,2.60
2023-03-28T16:10:23.898Z,5.20
2023-03-28T16:12:54.421Z,3.40
2023-03-28T16:15:22.279Z,4.60
2023-03-28T16:17:52.012Z,2.80
2023-03-28T16:20:23.274Z,3.70
2023-03-28T16:22:51.315Z,3.40
2023-03-28T16:25:19.965Z,3.10
2023-03-28T16:27:53.387Z,6.20
2023-03-28T16:30:31.903Z,3.10
2023-03-28T16:32:59.884Z,2.50
2023-03-28T16:35:29.043Z,4.90
2023-03-28T16:37:57.052Z,4.40
2023-03-28T16:40:25.031Z,5.70
2023-03-28T16:44:25.507Z,4.10
2023-03-28T16:48:02.450Z,2.90
2023-03-28T16:51:45.152Z,4.00
2023-03-28T17:05:46.521Z,4.20
2023-03-28T17:08:17.409Z,3.70
2023-03-28T17:10:45.788Z,3.70
2023-03-28T17:13:17.751Z,3.70
2023-03-28T17:19:48.394Z,5.10
2023-03-28T17:28:27.756Z,7.90
2023-03-28T17:31:01.717Z,4.60
2023-03-28T17:33:36.611Z,5.50
2023-03-28T17:36:22.433Z,5.90
2023-03-28T17:39:20.738Z,4.20
2023-03-28T17:43:12.029Z,4.00
2023-03-28T17:45:40.471Z,4.20
2023-03-28T17:48:08.604Z,6.00
2023-03-28T17:50:37.651Z,4.30
2023-03-28T17:53:06.925Z,4.70
2023-03-28T17:55:34.939Z,4.20
2023-03-28T17:59:27.182Z,3.50
2023-03-28T18:01:55.592Z,4.00
2023-03-28T18:04:25.947Z,6.30
2023-03-28T18:07:01.714Z,6.00
2023-03-28T18:09:30.070Z,4.50
2023-03-28T18:11:58.438Z,5.00
2023-03-28T18:14:26.935Z,4.20
2023-03-28T18:16:56.436Z,3.80
2023-03-28T18:19:27.143Z,4.40
2023-03-28T18:21:58.649Z,17.00
2023-03-28T18:24:26.798Z,5.20
2023-03-28T18:26:54.990Z,8.60
2023-03-28T18:29:23.159Z,4.80
2023-03-28T18:31:51.556Z,8.60
2023-03-28T18:34:20.615Z,5.50
2023-03-28T18:37:35.667Z,8.30
2023-03-28T18:40:59.102Z,7.60
2023-03-28T18:43:27.424Z,7.20
2023-03-28T18:45:55.504Z,8.60
2023-03-28T18:48:23.545Z,5.40
2023-03-28T18:50:55.329Z,4.50
2023-03-28T18:53:23.209Z,5.20
2023-03-28T18:55:53.208Z,5.90
2023-03-28T18:58:25.447Z,6.30
2023-03-28T19:00:57.244Z,8.70
2023-03-28T19:03:41.825Z,7.80
2023-03-28T19:06:12.312Z,8.30
2023-03-28T19:09:58.643Z,11.80
2023-03-28T19:14:00.789Z,4.50
2023-03-28T19:28:11.718Z,6.50
2023-03-28T19:41:30.061Z,8.20
2023-03-28T19:44:16.225Z,4.50
2023-03-28T20:02:01.620Z,5.50
2023-03-28T20:15:43.172Z,5.90
2023-03-28T20:33:58.890Z,5.40
2023-03-28T20:48:05.638Z,7.10
2023-03-28T20:50:54.015Z,11.10
2023-03-28T20:53:22.541Z,11.60
2023-03-28T20:56:09.077Z,8.00
2023-03-28T20:58:39.398Z,8.70
2023-03-28T21:01:09.661Z,8.10
2023-03-28T21:04:04.616Z,6.50
2023-03-28T21:06:38.145Z,8.10
2023-03-28T21:09:08.906Z,9.10
2023-03-28T21:11:38.692Z,8.10
2023-03-28T21:14:08.341Z,7.60
2023-03-28T21:16:37.805Z,7.20
2023-03-28T21:19:06.252Z,8.00
2023-03-28T21:21:57.267Z,9.40
2023-03-28T21:24:25.271Z,7.70
2023-03-28T21:33:40.907Z,4.10
2023-03-28T21:36:54.230Z,6.70
2023-03-28T21:40:41.086Z,5.60
2023-03-28T21:43:11.467Z,6.50
2023-03-28T21:45:39.387Z,5.30
2023-03-28T21:48:07.495Z,5.20
2023-03-28T21:50:38.789Z,5.50
2023-03-28T21:55:59.177Z,5.10
2023-03-28T22:09:45.599Z,5.00
2023-03-28T22:23:06.635Z,5.20
2023-03-28T22:25:56.605Z,5.70
2023-03-28T22:29:36.261Z,6.40
2023-03-28T22:33:24.105Z,4.40
2023-03-28T22:36:55.003Z,6.40
2023-03-28T22:40:34.872Z,6.50
2023-03-28T22:44:21.311Z,7.20
2023-03-28T22:48:00.627Z,5.30
2023-03-28T22:51:33.084Z,6.70
2023-03-28T22:54:03.217Z,5.10
2023-03-28T22:56:31.157Z,6.40
2023-03-28T22:59:01.538Z,10.10
2023-03-28T23:01:30.636Z,6.50
2023-03-28T23:03:58.549Z,9.60
2023-03-28T23:18:11.370Z,5.50
2023-03-28T23:21:18.932Z,8.30
2023-03-28T23:24:38.089Z,4.70
2023-03-28T23:28:20.392Z,4.20
2023-03-28T23:31:59.928Z,4.70
2023-03-28T23:35:34.616Z,5.60
2023-03-28T23:39:09.227Z,5.70
2023-03-28T23:42:48.248Z,5.90
2023-03-28T23:47:18.298Z,5.20
2023-03-28T23:50:54.842Z,5.20
2023-03-28T23:54:38.398Z,6.10
2023-03-28T23:58:29.239Z,3.40
